Details From OIZB - Zabol
To OAIX - Bagram
Flight Number -
Tags Generated
Created
Modified
Stats Distance 451 nm / 836 km
Max Altitude 0 ft / 0 m
Waypoints 3
Social Downloads 0
Likes 0
Share VATSIM

Download

Looking for another format? Having issues loading an existing format? Contact us
Advertisement - Login to hide

Notes

Generated

Route

OIZB R2925 OAIX

ID Type Via Altitude Latitude Longitude Leg Dist Tot Dist Heading (true) Name
O OIZB APT - 0 ft / 0 m 31.11033˚ 61.54051˚ - 0 nm - -
R2925 FIX - 0 ft / 0 m 34.93431˚ 69.25700˚ 451 nm 451 nm 57° / 62° -
O OAIX APT - 0 ft / 0 m 34.93431˚ 69.25700˚ 0 nm 451 nm 0° / 180° -

Altitude Profile

Advertisement - Login to hide

Weather


0- 5 10 15 20 25 30 35+ Temperature / ° C

Clouds and Precipitation
Forecast for 2017-12-15 12:00 UTC. Updated an hour ago

Ground ~20,000 ft ~40,000 ft Winds

OIZB

Details ICAO OIZB
Name ZABOL
Region Iran
Timezone Asia/Tehran (UTC+3.5)
Stats Elevation 1,628 ft / 496 m (AMSL)
Location 31.097150° 61.544107°
Runways 1
Magnetic Variation 2.760° E

METAR

OIZB 151200Z 17004KT 9999 FEW035TCU SCT190 17/M10 Q1020

Decode

TAF

Not found

Departure Runways

ID Width Length Bearing (true) Bearing (mag) Surface Threshold Offset Overrun Length
16 148 ft / 45 m 9,876 ft / 3,010 m 166.86° 164.10° Asphalt 0 ft / 0 m 820 ft / 250 m
34 148 ft / 45 m 9,876 ft / 3,010 m 346.86° 344.10° Asphalt 0 ft / 0 m 820 ft / 250 m

OAIX

Details ICAO OAIX (BPM)
Name BAGRAM
Region Afghanistan
Timezone Asia/Kabul (UTC+4.5)
Stats Elevation 4,895 ft / 1,492 m (AMSL)
Location 34.946139° 69.264972°
Runways 1
Magnetic Variation 3.269° E

METAR

OAIX 151158Z 00000KT 9999 FEW070 FEW140 03/M04 A3031 RMK AO2A SLP260 70002 T00261040 10046 20010 52002

Decode

TAF

TAF OAIX 150700Z 1507/1613 VRB06KT 9999 SCT030 SCT100 QNH3026INS TEMPO 1507/1509 8000 BR BECMG 1513/1514 32006KT 9999 FEW050 SCT060 QNH3030INS BECMG 1600/1601 31006KT 6000 BR SCT050 SCT100 QNH3029INS BECMG 1605/1606 31009KT 9999 NSW SCT050 SCT120 QNH3029INS TEMPO 1605/1609 8000 BR BECMG 1612/1613 VRB06KT 9999 SCT050 SCT120 QNH3034INS TX04/1509Z TNM01/1600Z

Decode

Destination Runways

ID Width Length Bearing (true) Bearing (mag) Surface Threshold Offset Overrun Length
03 180 ft / 55 m 9,865 ft / 3,007 m 28.90° 25.63° Concrete 0 ft / 0 m 0 ft / 0 m
21 180 ft / 55 m 9,865 ft / 3,007 m 208.91° 205.64° Concrete 0 ft / 0 m 0 ft / 0 m